Time;durP1;ratioP1;P1;durP2;ratioP2;P2;SDS_P1;SDS_P2;PMS_P1;PMS_P2;Temp;Humidity;BMP_temperature;BMP_pressure;BME280_temperature;BME280_humidity;BME280_pressure;Samples;Min_cycle;Max_cycle;Signal;HPM_P1;HPM_P2
2021/07/22 00:01:23;;;;;;;;;;;;;;;29.63;37.32;100574.44;5099668;28;803;-40
2021/07/22 00:03:48;;;;;;;;;;;;;;;29.63;37.45;100588.00;5099719;28;732;-40
2021/07/22 00:06:14;;;;;;;;;;;;;;;29.62;37.16;100586.31;5099414;28;839;-41
2021/07/22 00:08:39;;;;;;;;;;;;;;;29.72;37.30;100578.63;5099624;28;764;-42
2021/07/22 00:11:07;;;;;;;;;;;;;;;29.67;37.23;100576.53;5099136;28;1014;-41
2021/07/22 00:13:33;;;;;;;;;;;;;;;29.78;37.25;100571.56;5099574;28;1894;-41
2021/07/22 00:15:58;;;;;;;;;;;;;;;29.78;37.05;100568.84;5099111;28;843;-41
2021/07/22 00:18:23;;;;;;;;;;;;;;;29.75;37.21;100572.78;5099534;28;796;-40
2021/07/22 00:20:49;;;;;;;;;;;;;;;29.68;37.47;100566.50;5099337;28;811;-41
2021/07/22 00:23:14;;;;;;;;;;;;;;;29.71;37.35;100555.28;5099567;28;764;-40
2021/07/22 00:25:40;;;;;;;;;;;;;;;29.72;37.51;100556.09;5099431;28;799;-40
2021/07/22 00:28:05;;;;;;;;;;;;;;;29.79;37.05;100557.78;5098909;28;994;-41
2021/07/22 00:30:30;;;;;;;;;;;;;;;29.69;37.29;100563.63;5099452;28;776;-42
2021/07/22 00:32:57;;;;;;;;;;;;;;;29.80;36.85;100561.31;5098683;28;827;-41
2021/07/22 00:35:23;;;;;;;;;;;;;;;29.81;36.97;100571.97;5098843;28;1905;-41
2021/07/22 00:37:48;;;;;;;;;;;;;;;29.74;37.22;100573.00;5099080;28;791;-42
2021/07/22 00:40:13;;;;;;;;;;;;;;;29.85;36.99;100572.38;5099137;28;784;-41
2021/07/22 00:42:57;;;;;;;;;;;;;;;29.85;36.89;100569.66;5080289;28;1410;-39
2021/07/22 00:45:22;;;;;;;;;;;;;;;29.85;37.00;100575.09;5097770;28;811;-41
2021/07/22 00:47:48;;;;;;;;;;;;;;;29.87;36.89;100566.75;5099127;28;964;-40
2021/07/22 00:50:13;;;;;;;;;;;;;;;29.94;36.76;100564.91;5098779;28;875;-41
2021/07/22 00:52:38;;;;;;;;;;;;;;;29.88;36.90;100568.44;5098789;28;1044;-41
2021/07/22 00:55:04;;;;;;;;;;;;;;;29.94;36.75;100573.03;5098840;28;1917;-38
2021/07/22 00:57:29;;;;;;;;;;;;;;;29.90;36.82;100571.75;5098040;28;993;-42
2021/07/22 00:59:55;;;;;;;;;;;;;;;29.91;36.74;100568.84;5098547;28;816;-41
2021/07/22 01:02:20;;;;;;;;;;;;;;;29.86;36.90;100571.38;5098981;28;733;-40
2021/07/22 01:04:45;;;;;;;;;;;;;;;29.91;36.64;100571.56;5098540;28;859;-40
2021/07/22 01:07:11;;;;;;;;;;;;;;;29.89;36.64;100576.38;5098398;28;747;-41
2021/07/22 01:09:36;;;;;;;;;;;;;;;29.87;37.02;100570.31;5098478;28;815;-41
2021/07/22 01:12:01;;;;;;;;;;;;;;;29.88;36.80;100577.41;5097654;28;911;-42
2021/07/22 01:14:27;;;;;;;;;;;;;;;29.87;37.05;100572.19;5098448;28;1902;-42
2021/07/22 01:16:52;;;;;;;;;;;;;;;29.93;36.78;100577.59;5097994;28;864;-40
2021/07/22 01:19:17;;;;;;;;;;;;;;;29.91;36.77;100571.56;5079806;28;816;-42
2021/07/22 01:21:43;;;;;;;;;;;;;;;29.94;36.78;100570.31;5098346;28;837;-41
2021/07/22 01:24:08;;;;;;;;;;;;;;;29.87;37.06;100583.88;5097945;28;755;-42
2021/07/22 01:26:33;;;;;;;;;;;;;;;29.93;36.58;100580.31;5097440;28;950;-42
2021/07/22 01:28:58;;;;;;;;;;;;;;;29.88;36.76;100592.84;5098212;28;728;-42
2021/07/22 01:31:24;;;;;;;;;;;;;;;29.94;36.62;100594.72;5097891;28;878;-42
2021/07/22 01:33:50;;;;;;;;;;;;;;;29.86;36.90;100590.34;5098302;28;1930;-40
2021/07/22 01:36:22;;;;;;;;;;;;;;;29.93;36.74;100602.03;5098090;28;807;-39
2021/07/22 01:38:47;;;;;;;;;;;;;;;29.87;36.90;100602.84;5097731;28;775;-40
2021/07/22 01:41:12;;;;;;;;;;;;;;;29.97;36.91;100590.75;5097410;28;942;-41
2021/07/22 01:43:38;;;;;;;;;;;;;;;29.93;36.62;100595.75;5097991;28;763;-42
2021/07/22 01:46:03;;;;;;;;;;;;;;;29.88;36.93;100606.41;5097375;28;831;-40
2021/07/22 01:48:28;;;;;;;;;;;;;;;29.92;36.61;100600.34;5097701;28;1217;-41
2021/07/22 01:50:53;;;;;;;;;;;;;;;29.92;36.93;100588.66;5094988;28;1150;-40
2021/07/22 01:53:19;;;;;;;;;;;;;;;30.03;36.49;100600.81;5077218;28;1914;-42
2021/07/22 01:55:44;;;;;;;;;;;;;;;29.93;36.45;100607.44;5076755;28;827;-42
2021/07/22 01:58:09;;;;;;;;;;;;;;;29.93;36.94;100610.16;5096126;28;944;-42
2021/07/22 02:00:35;;;;;;;;;;;;;;;29.99;36.44;100607.66;5097503;28;756;-42
2021/07/22 02:03:00;;;;;;;;;;;;;;;29.90;36.75;100610.56;5097382;28;768;-42
2021/07/22 02:05:25;;;;;;;;;;;;;;;29.94;36.53;100603.72;5097175;28;778;-42
2021/07/22 02:07:51;;;;;;;;;;;;;;;29.91;36.82;100593.25;5097386;28;775;-41
2021/07/22 02:10:16;;;;;;;;;;;;;;;29.96;36.78;100594.53;5097468;28;838;-42
2021/07/22 02:12:41;;;;;;;;;;;;;;;29.96;36.73;100592.66;5096626;28;1013;-42
2021/07/22 02:15:07;;;;;;;;;;;;;;;29.98;36.66;100592.44;5097152;28;1963;-39
2021/07/22 02:17:32;;;;;;;;;;;;;;;29.94;36.56;100592.88;5097159;28;1488;-42
2021/07/22 02:19:57;;;;;;;;;;;;;;;29.94;36.82;100587.44;5097333;28;808;-41
2021/07/22 02:22:23;;;;;;;;;;;;;;;29.92;36.69;100585.97;5097244;28;898;-41
2021/07/22 02:24:48;;;;;;;;;;;;;;;29.98;36.50;100585.13;5096647;28;1536;-42
2021/07/22 02:27:13;;;;;;;;;;;;;;;29.96;36.81;100584.50;5096332;28;946;-42
2021/07/22 02:29:38;;;;;;;;;;;;;;;30.01;36.87;100586.59;5096869;28;740;-42
2021/07/22 02:32:04;;;;;;;;;;;;;;;30.03;36.63;100582.63;5096974;28;759;-41
2021/07/22 02:34:29;;;;;;;;;;;;;;;30.08;36.47;100586.63;5096843;28;1929;-41
2021/07/22 02:36:55;;;;;;;;;;;;;;;29.98;36.75;100593.25;5096745;28;823;-40
2021/07/22 02:39:20;;;;;;;;;;;;;;;30.04;36.53;100608.72;5096683;28;891;-41
2021/07/22 02:41:45;;;;;;;;;;;;;;;30.02;36.58;100599.94;5096232;28;950;-40
2021/07/22 02:44:10;;;;;;;;;;;;;;;29.98;36.66;100608.72;5097115;28;875;-40
2021/07/22 02:46:36;;;;;;;;;;;;;;;29.97;36.66;100605.16;5096588;28;811;-42
2021/07/22 02:49:01;;;;;;;;;;;;;;;29.97;36.83;100617.88;5096319;28;1074;-41
2021/07/22 02:51:26;;;;;;;;;;;;;;;29.95;36.69;100620.78;5096524;28;1123;-42
2021/07/22 02:53:51;;;;;;;;;;;;;;;29.97;36.85;100618.72;5096318;28;1906;-42
2021/07/22 02:56:17;;;;;;;;;;;;;;;30.00;36.61;100623.72;5096103;28;951;-39
2021/07/22 02:58:42;;;;;;;;;;;;;;;30.09;36.66;100628.97;5096905;28;988;-41
2021/07/22 03:01:08;;;;;;;;;;;;;;;29.92;36.77;100621.22;5096423;28;795;-41
2021/07/22 03:03:33;;;;;;;;;;;;;;;29.97;37.01;100629.56;5096590;28;752;-41
2021/07/22 03:05:58;;;;;;;;;;;;;;;30.04;36.65;100627.72;5096598;28;843;-41
2021/07/22 03:08:23;;;;;;;;;;;;;;;29.96;36.89;100625.19;5095568;28;779;-40
2021/07/22 03:10:49;;;;;;;;;;;;;;;29.96;36.73;100632.50;5096133;28;994;-36
2021/07/22 03:13:14;;;;;;;;;;;;;;;29.36;35.47;100626.63;5096352;28;1918;-35
2021/07/22 03:15:40;;;;;;;;;;;;;;;29.01;34.93;100623.94;5095942;28;810;-36
2021/07/22 03:18:05;;;;;;;;;;;;;;;28.71;35.59;100624.97;5096360;28;763;-35
2021/07/22 03:20:31;;;;;;;;;;;;;;;28.48;35.85;100636.84;5096290;28;846;-33
2021/07/22 03:22:57;;;;;;;;;;;;;;;28.31;35.34;100638.97;5096472;28;767;-44
2021/07/22 03:25:22;;;;;;;;;;;;;;;28.05;34.47;100645.78;5095993;28;818;-35
2021/07/22 03:27:48;;;;;;;;;;;;;;;28.02;35.20;100646.19;5095622;28;987;-35
2021/07/22 03:30:14;;;;;;;;;;;;;;;28.18;34.44;100645.94;5096005;28;847;-34
2021/07/22 03:32:41;;;;;;;;;;;;;;;27.98;34.43;100645.72;5077836;28;1112;-34
2021/07/22 03:35:06;;;;;;;;;;;;;;;27.72;34.72;100652.50;5096056;28;1973;-35
2021/07/22 03:37:32;;;;;;;;;;;;;;;27.82;34.63;100669.28;5096327;28;764;-33
2021/07/22 03:39:57;;;;;;;;;;;;;;;27.69;34.77;100656.44;5096549;28;827;-34
2021/07/22 03:42:27;;;;;;;;;;;;;;;27.54;34.93;100655.59;5095684;28;998;-34
2021/07/22 03:44:52;;;;;;;;;;;;;;;27.57;34.71;100650.63;5096376;28;835;-34
2021/07/22 03:47:18;;;;;;;;;;;;;;;27.42;34.96;100652.50;5096164;28;992;-35
2021/07/22 03:49:43;;;;;;;;;;;;;;;27.60;35.08;100639.44;5077653;28;1124;-34
2021/07/22 03:52:08;;;;;;;;;;;;;;;27.71;34.59;100648.13;5083233;28;1100;-35
2021/07/22 03:54:33;;;;;;;;;;;;;;;27.42;36.08;100653.34;5077589;28;1913;-34
2021/07/22 03:56:59;;;;;;;;;;;;;;;27.41;36.80;100658.94;5095616;28;819;-35
2021/07/22 03:59:25;;;;;;;;;;;;;;;27.92;35.12;100657.31;5095393;28;1285;-38
2021/07/22 04:01:50;;;;;;;;;;;;;;;28.21;34.78;100664.47;5096187;28;863;-38
2021/07/22 04:04:15;;;;;;;;;;;;;;;28.40;34.46;100658.63;5096025;28;798;-38
2021/07/22 04:06:41;;;;;;;;;;;;;;;28.51;34.07;100660.81;5094983;28;1455;-40
2021/07/22 04:09:06;;;;;;;;;;;;;;;28.48;34.34;100669.31;5096045;28;756;-42
2021/07/22 04:11:31;;;;;;;;;;;;;;;28.53;34.40;100669.59;5095200;28;871;-35
2021/07/22 04:13:56;;;;;;;;;;;;;;;28.43;33.91;100664.50;5095194;28;1909;-39
2021/07/22 04:16:22;;;;;;;;;;;;;;;28.48;33.55;100675.59;5079381;28;751;-42
2021/07/22 04:18:47;;;;;;;;;;;;;;;28.39;33.71;100668.63;5087303;28;825;-39
2021/07/22 04:21:12;;;;;;;;;;;;;;;28.25;33.33;100667.63;5098836;28;522;-38
2021/07/22 04:23:38;;;;;;;;;;;;;;;28.35;33.36;100672.75;5096128;28;882;-38
2021/07/22 04:26:03;;;;;;;;;;;;;;;28.40;33.01;100670.31;5080603;28;947;-40
2021/07/22 04:28:28;;;;;;;;;;;;;;;28.36;33.49;100677.16;5099402;28;807;-38
2021/07/22 04:30:53;;;;;;;;;;;;;;;28.46;33.28;100674.94;5099374;28;824;-39
2021/07/22 04:33:19;;;;;;;;;;;;;;;28.45;33.14;100665.16;5099140;28;1968;-39
2021/07/22 04:35:44;;;;;;;;;;;;;;;28.58;33.30;100669.84;5091667;28;799;-41
2021/07/22 04:38:10;;;;;;;;;;;;;;;28.56;32.61;100655.66;5078681;28;804;-44
2021/07/22 04:40:35;;;;;;;;;;;;;;;28.47;33.16;100673.06;5092703;28;1473;-40
2021/07/22 04:43:00;;;;;;;;;;;;;;;28.36;33.31;100671.75;5098988;28;994;-39
2021/07/22 04:45:25;;;;;;;;;;;;;;;28.50;32.88;100675.38;5097927;28;1388;-37
2021/07/22 04:47:51;;;;;;;;;;;;;;;28.68;32.88;100679.47;5104684;28;1021;-41
2021/07/22 04:50:16;;;;;;;;;;;;;;;28.70;32.64;100680.13;5118765;28;1344;-38
2021/07/22 04:52:41;;;;;;;;;;;;;;;28.78;33.09;100673.75;5119136;28;936;-41
2021/07/22 04:55:07;;;;;;;;;;;;;;;28.60;33.17;100672.34;5119219;28;1901;-38
2021/07/22 04:57:32;;;;;;;;;;;;;;;28.53;33.44;100677.69;5119035;28;1477;-40
2021/07/22 04:59:57;;;;;;;;;;;;;;;28.61;33.43;100676.75;5118909;28;823;-40
2021/07/22 05:02:22;;;;;;;;;;;;;;;28.44;34.05;100671.59;5119559;28;783;-42
2021/07/22 05:04:48;;;;;;;;;;;;;;;28.56;33.77;100669.19;5118614;28;869;-38
2021/07/22 05:07:13;;;;;;;;;;;;;;;28.79;33.37;100678.97;5119537;28;838;-43
2021/07/22 05:09:38;;;;;;;;;;;;;;;28.81;33.84;100668.75;5119000;28;818;-40
2021/07/22 05:12:04;;;;;;;;;;;;;;;28.94;34.54;100667.19;5118185;28;1110;-42
2021/07/22 05:14:30;;;;;;;;;;;;;;;28.99;34.72;100667.47;5118774;28;1905;-37
2021/07/22 05:16:55;;;;;;;;;;;;;;;29.03;34.75;100674.16;5118699;28;826;-38
2021/07/22 05:19:20;;;;;;;;;;;;;;;29.07;34.72;100664.63;5118705;28;830;-39
2021/07/22 05:21:45;;;;;;;;;;;;;;;29.28;35.17;100653.91;5118820;28;759;-39
2021/07/22 05:24:11;;;;;;;;;;;;;;;29.24;34.99;100667.00;5118811;28;753;-39
2021/07/22 05:26:36;;;;;;;;;;;;;;;28.96;33.51;100670.56;5118337;28;1017;-43
2021/07/22 05:29:02;;;;;;;;;;;;;;;28.73;34.52;100664.34;5118344;28;771;-43
2021/07/22 05:31:27;;;;;;;;;;;;;;;28.94;34.00;100680.75;5118232;28;1038;-43
2021/07/22 05:33:52;;;;;;;;;;;;;;;27.42;35.09;100660.63;5118489;28;1967;-39
2021/07/22 05:36:19;;;;;;;;;;;;;;;25.89;34.82;100665.75;5117137;28;1415;-41
2021/07/22 05:38:44;;;;;;;;;;;;;;;26.35;34.90;100664.13;5115582;28;1293;-39
2021/07/22 05:41:10;;;;;;;;;;;;;;;26.76;35.17;100671.88;5116242;28;815;-32
2021/07/22 05:43:35;;;;;;;;;;;;;;;26.47;35.80;100672.63;5097989;28;834;-39
2021/07/22 05:46:00;;;;;;;;;;;;;;;26.05;36.48;100667.50;5111173;28;953;-39
2021/07/22 05:48:26;;;;;;;;;;;;;;;26.28;36.18;100670.22;5117758;28;1504;-40
2021/07/22 05:50:51;;;;;;;;;;;;;;;26.49;35.54;100667.91;5117223;28;1218;-40
2021/07/22 05:53:17;;;;;;;;;;;;;;;25.95;36.37;100670.44;5117171;28;1961;-38
2021/07/22 05:55:42;;;;;;;;;;;;;;;25.84;36.71;100673.53;5117246;28;875;-40
2021/07/22 05:58:07;;;;;;;;;;;;;;;25.97;36.89;100667.56;5117194;28;1273;-33
2021/07/22 06:00:32;;;;;;;;;;;;;;;26.07;36.29;100653.84;5117495;28;1301;-33
2021/07/22 06:02:58;;;;;;;;;;;;;;;23.17;43.05;100657.94;5118166;28;890;-37
2021/07/22 06:05:23;;;;;;;;;;;;;;;22.21;45.61;100661.19;5118040;28;867;-35
2021/07/22 06:07:49;;;;;;;;;;;;;;;21.98;46.25;100667.00;5106718;28;862;-39
2021/07/22 06:10:14;;;;;;;;;;;;;;;21.60;47.73;100663.50;5111732;28;1476;-31
2021/07/22 06:12:40;;;;;;;;;;;;;;;21.34;48.66;100648.94;5117006;28;1313;-38
2021/07/22 06:15:06;;;;;;;;;;;;;;;21.33;49.03;100649.94;5117700;28;1967;-38
2021/07/22 06:17:33;;;;;;;;;;;;;;;21.19;49.33;100648.56;5116280;28;1381;-32
2021/07/22 06:19:58;;;;;;;;;;;;;;;20.93;50.26;100654.53;5115099;28;859;-30
2021/07/22 06:22:24;;;;;;;;;;;;;;;20.96;50.51;100653.41;5116251;28;1472;-39
2021/07/22 06:24:49;;;;;;;;;;;;;;;20.80;51.22;100650.28;5117381;28;854;-39
2021/07/22 06:27:14;;;;;;;;;;;;;;;20.82;51.36;100657.34;5117260;28;864;-38
2021/07/22 06:29:40;;;;;;;;;;;;;;;20.90;51.56;100650.28;5117026;28;1538;-38
2021/07/22 06:32:05;;;;;;;;;;;;;;;20.72;52.06;100660.84;5117257;28;839;-37
2021/07/22 06:34:30;;;;;;;;;;;;;;;20.72;51.93;100660.03;5115102;28;1905;-38
2021/07/22 06:36:56;;;;;;;;;;;;;;;20.58;52.35;100656.81;5116367;28;1372;-38
2021/07/22 06:39:21;;;;;;;;;;;;;;;20.51;53.06;100661.00;5117250;28;1305;-29
2021/07/22 06:41:46;;;;;;;;;;;;;;;20.50;53.35;100665.50;5114900;28;1328;-38
2021/07/22 06:44:11;;;;;;;;;;;;;;;20.56;53.00;100661.44;5116176;28;1352;-32
2021/07/22 06:46:37;;;;;;;;;;;;;;;20.45;53.68;100662.44;5116105;28;1207;-32
2021/07/22 06:49:02;;;;;;;;;;;;;;;20.50;54.02;100651.31;5101032;28;1333;-38
2021/07/22 06:51:27;;;;;;;;;;;;;;;20.38;54.17;100653.28;5094861;28;1484;-29
2021/07/22 06:53:54;;;;;;;;;;;;;;;20.44;53.92;100644.69;5095573;28;1918;-32
2021/07/22 06:56:19;;;;;;;;;;;;;;;20.47;53.49;100651.59;5089648;28;1523;-34
2021/07/22 06:58:44;;;;;;;;;;;;;;;20.48;53.97;100639.91;5088746;28;1374;-32
2021/07/22 07:01:09;;;;;;;;;;;;;;;20.38;54.25;100643.44;5089553;28;1535;-34
2021/07/22 07:03:35;;;;;;;;;;;;;;;20.37;54.75;100638.25;5096411;28;1550;-34
2021/07/22 07:06:02;;;;;;;;;;;;;;;20.37;54.88;100644.41;5096528;28;1196;-34
2021/07/22 07:08:27;;;;;;;;;;;;;;;20.29;54.96;100647.78;5095891;28;1531;-34
2021/07/22 07:10:53;;;;;;;;;;;;;;;20.42;54.97;100654.66;5095011;28;771;-28
2021/07/22 07:13:18;;;;;;;;;;;;;;;20.39;55.01;100633.59;5096359;28;1972;-29
2021/07/22 07:15:44;;;;;;;;;;;;;;;20.28;55.47;100653.28;5095797;28;1283;-37
2021/07/22 07:18:09;;;;;;;;;;;;;;;20.37;55.34;100663.13;5096477;28;811;-36
2021/07/22 07:20:35;;;;;;;;;;;;;;;20.28;56.03;100655.94;5096261;28;754;-30
2021/07/22 07:23:00;;;;;;;;;;;;;;;20.34;55.51;100666.06;5096096;28;871;-32
2021/07/22 07:25:26;;;;;;;;;;;;;;;20.27;55.81;100657.75;5094891;28;1422;-29
2021/07/22 07:27:51;;;;;;;;;;;;;;;20.30;55.81;100670.03;5071604;28;785;-38
2021/07/22 07:30:19;;;;;;;;;;;;;;;20.34;55.19;100651.84;5096759;28;934;-36
2021/07/22 07:32:45;;;;;;;;;;;;;;;20.27;55.93;100670.28;5095736;28;1448;-36
2021/07/22 07:35:10;;;;;;;;;;;;;;;20.25;55.71;100667.72;5095143;28;1905;-39
2021/07/22 07:37:35;;;;;;;;;;;;;;;20.47;55.68;100659.63;5063812;28;1136;-29
2021/07/22 07:40:01;;;;;;;;;;;;;;;20.28;55.90;100663.97;5075817;28;872;-30
2021/07/22 07:42:26;;;;;;;;;;;;;;;20.21;55.95;100677.03;5089260;28;955;-38
2021/07/22 07:44:52;;;;;;;;;;;;;;;20.30;56.29;100672.69;5096226;28;834;-38
2021/07/22 07:47:18;;;;;;;;;;;;;;;20.29;55.81;100677.19;5096077;28;1193;-38
2021/07/22 07:49:43;;;;;;;;;;;;;;;20.34;56.39;100681.25;5087377;28;842;-32
2021/07/22 07:52:08;;;;;;;;;;;;;;;20.28;56.33;100678.16;5088469;28;1057;-33
2021/07/22 07:54:33;;;;;;;;;;;;;;;20.35;55.96;100667.78;5098071;28;1917;-38
2021/07/22 07:56:59;;;;;;;;;;;;;;;20.30;56.67;100670.84;5099778;28;879;-29
2021/07/22 07:59:24;;;;;;;;;;;;;;;20.38;55.85;100680.84;5099563;28;1523;-35
2021/07/22 08:01:49;;;;;;;;;;;;;;;20.30;56.11;100683.38;5096830;28;816;-38
2021/07/22 08:04:15;;;;;;;;;;;;;;;20.35;56.44;100683.81;5079128;28;847;-38
2021/07/22 08:06:40;;;;;;;;;;;;;;;20.29;55.31;100682.53;5079491;28;807;-33
2021/07/22 08:09:05;;;;;;;;;;;;;;;20.31;54.79;100669.03;5079471;28;745;-37
2021/07/22 08:11:31;;;;;;;;;;;;;;;20.21;54.32;100676.16;5085007;28;892;-38
2021/07/22 08:13:56;;;;;;;;;;;;;;;20.37;53.61;100689.00;5080879;28;1980;-38
2021/07/22 08:16:22;;;;;;;;;;;;;;;20.17;54.47;100680.94;5091824;28;1247;-33
2021/07/22 08:18:49;;;;;;;;;;;;;;;20.71;56.63;100675.22;5099053;28;828;-39
2021/07/22 08:21:14;;;;;;;;;;;;;;;23.39;48.85;100693.31;5099434;28;764;-33
2021/07/22 08:23:39;;;;;;;;;;;;;;;21.79;51.87;100685.84;5099791;28;780;-40
2021/07/22 08:26:09;;;;;;;;;;;;;;;20.80;53.46;100685.06;5099139;28;923;-44
2021/07/22 08:28:34;;;;;;;;;;;;;;;20.80;54.77;100685.06;5085970;28;839;-35
2021/07/22 08:30:59;;;;;;;;;;;;;;;23.51;48.99;100699.28;5078893;28;788;-41
2021/07/22 08:33:25;;;;;;;;;;;;;;;24.55;49.14;100700.97;5090064;28;1974;-34
2021/07/22 08:35:50;;;;;;;;;;;;;;;25.25;45.86;100711.41;5097727;28;1326;-38
2021/07/22 08:38:15;;;;;;;;;;;;;;;24.01;48.04;100709.38;5097925;28;1365;-28
2021/07/22 08:40:41;;;;;;;;;;;;;;;22.19;52.40;100695.34;5090408;28;1306;-31
2021/07/22 08:43:07;;;;;;;;;;;;;;;23.60;50.88;100692.97;5097755;28;987;-38
2021/07/22 08:45:32;;;;;;;;;;;;;;;25.00;46.52;100702.50;5099212;28;820;-39
2021/07/22 08:47:58;;;;;;;;;;;;;;;22.46;52.55;100690.91;5083174;28;1287;-40
2021/07/22 08:50:24;;;;;;;;;;;;;;;24.37;49.38;100690.38;5099056;28;952;-31
2021/07/22 08:52:50;;;;;;;;;;;;;;;24.21;48.96;100691.16;5097569;28;1114;-30
2021/07/22 08:55:16;;;;;;;;;;;;;;;22.50;53.32;100689.59;5098633;28;1975;-40
2021/07/22 08:57:41;;;;;;;;;;;;;;;23.52;53.23;100703.66;5098687;28;1004;-30
2021/07/22 09:00:07;;;;;;;;;;;;;;;25.63;46.49;100693.81;5097708;28;982;-38
2021/07/22 09:02:32;;;;;;;;;;;;;;;22.89;52.83;100697.53;5099097;28;799;-32
2021/07/22 09:04:58;;;;;;;;;;;;;;;22.17;54.59;100683.91;5098164;28;786;-34
2021/07/22 09:07:24;;;;;;;;;;;;;;;22.77;55.87;100687.03;5098639;28;779;-39
2021/07/22 09:10:04;;;;;;;;;;;;;;;25.23;47.76;100685.63;5098575;28;755;-39
2021/07/22 09:12:36;;;;;;;;;;;;;;;23.06;52.55;100687.72;5098405;28;1005;-32
2021/07/22 09:15:02;;;;;;;;;;;;;;;22.67;55.88;100683.59;5098273;28;1902;-36
2021/07/22 09:17:27;;;;;;;;;;;;;;;25.24;48.11;100682.78;5098785;28;771;-35
2021/07/22 09:19:52;;;;;;;;;;;;;;;23.52;51.68;100684.88;5098437;28;760;-31
2021/07/22 09:22:18;;;;;;;;;;;;;;;22.63;53.88;100673.19;5098382;28;858;-30
2021/07/22 09:24:46;;;;;;;;;;;;;;;23.15;56.07;100684.13;5096841;28;1432;-31
2021/07/22 09:27:17;;;;;;;;;;;;;;;25.58;47.38;100677.28;5098189;28;949;-40
2021/07/22 09:29:57;;;;;;;;;;;;;;;23.22;52.43;100684.34;5097125;28;1074;-33
2021/07/22 09:32:28;;;;;;;;;;;;;;;22.22;54.62;100683.50;5097576;28;1520;-34
2021/07/22 09:35:02;;;;;;;;;;;;;;;22.07;54.92;100672.44;5097026;28;1996;-34
2021/07/22 09:37:28;;;;;;;;;;;;;;;24.48;50.00;100672.22;5097960;28;844;-39
2021/07/22 09:39:53;;;;;;;;;;;;;;;24.45;48.85;100676.94;5098314;28;811;-34
2021/07/22 09:42:18;;;;;;;;;;;;;;;22.77;53.14;100681.69;5097708;28;914;-35
2021/07/22 09:44:44;;;;;;;;;;;;;;;22.30;54.02;100664.81;5093582;28;862;-31
2021/07/22 09:47:13;;;;;;;;;;;;;;;24.81;49.33;100682.97;5077461;28;846;-33
2021/07/22 09:49:39;;;;;;;;;;;;;;;24.21;49.83;100683.09;5087606;28;816;-37
2021/07/22 09:52:10;;;;;;;;;;;;;;;22.75;53.29;100676.44;5097919;28;1137;-35
2021/07/22 09:54:36;;;;;;;;;;;;;;;22.38;54.18;100664.03;5097577;28;1906;-38
2021/07/22 09:57:02;;;;;;;;;;;;;;;22.03;55.19;100674.56;5097117;28;926;-38
2021/07/22 09:59:28;;;;;;;;;;;;;;;23.87;52.27;100679.47;5077139;28;800;-40
2021/07/22 10:01:53;;;;;;;;;;;;;;;25.71;46.87;100668.69;5077416;28;806;-32
2021/07/22 10:04:19;;;;;;;;;;;;;;;22.91;53.31;100677.56;5076091;28;803;-41
2021/07/22 10:06:44;;;;;;;;;;;;;;;22.60;53.67;100669.94;5077240;28;799;-34
2021/07/22 10:09:10;;;;;;;;;;;;;;;22.27;54.07;100662.44;5075457;28;824;-35
2021/07/22 10:11:35;;;;;;;;;;;;;;;24.55;50.18;100673.25;5083004;28;823;-38
2021/07/22 10:14:01;;;;;;;;;;;;;;;24.60;48.31;100673.59;5097283;28;1898;-33
2021/07/22 10:16:26;;;;;;;;;;;;;;;22.88;53.19;100672.53;5095543;28;887;-33
2021/07/22 10:18:53;;;;;;;;;;;;;;;22.45;54.04;100669.63;5095222;28;845;-36
2021/07/22 10:21:18;;;;;;;;;;;;;;;22.00;55.26;100675.69;5097347;28;819;-33
2021/07/22 10:23:44;;;;;;;;;;;;;;;22.27;55.16;100681.19;5085615;28;933;-35
2021/07/22 10:26:09;;;;;;;;;;;;;;;24.91;49.00;100672.91;5079372;28;879;-30
2021/07/22 10:28:35;;;;;;;;;;;;;;;23.79;50.58;100674.91;5097231;28;790;-40
2021/07/22 10:31:06;;;;;;;;;;;;;;;22.92;52.97;100679.25;5097248;28;775;-39
2021/07/22 10:33:34;;;;;;;;;;;;;;;22.24;54.83;100676.13;5095508;28;1889;-39
2021/07/22 10:35:59;;;;;;;;;;;;;;;22.29;54.45;100673.81;5082873;28;1475;-38
2021/07/22 10:38:24;;;;;;;;;;;;;;;24.24;51.02;100679.25;5078461;28;1313;-38
2021/07/22 10:40:51;;;;;;;;;;;;;;;25.26;47.12;100680.75;5078252;28;1143;-31
2021/07/22 10:43:34;;;;;;;;;;;;;;;22.87;53.29;100671.69;5080912;28;782;-34
2021/07/22 10:46:00;;;;;;;;;;;;;;;22.41;54.11;100676.28;5096524;28;844;-41
2021/07/22 10:48:26;;;;;;;;;;;;;;;23.28;54.89;100681.00;5093983;28;1075;-35
2021/07/22 10:50:54;;;;;;;;;;;;;;;25.74;46.43;100681.81;5078628;28;1104;-40
2021/07/22 10:53:34;;;;;;;;;;;;;;;23.27;51.85;100678.50;5084948;28;822;-40
2021/07/22 10:56:00;;;;;;;;;;;;;;;22.52;53.61;100678.75;5081350;28;1500;-38
2021/07/22 10:58:34;;;;;;;;;;;;;;;23.20;55.55;100680.97;5095531;28;1408;-39
2021/07/22 11:01:02;;;;;;;;;;;;;;;25.81;46.53;100680.09;5090165;28;1075;-38
2021/07/22 11:05:59;;;;;;;;;;;;;;;22.76;53.09;100679.97;5094269;28;1472;-38
2021/07/22 11:08:25;;;;;;;;;;;;;;;22.64;52.92;100684.72;5096532;28;796;-41
2021/07/22 11:10:54;;;;;;;;;;;;;;;22.36;54.20;100693.69;5096384;28;884;-36
2021/07/22 11:13:35;;;;;;;;;;;;;;;23.03;55.87;100698.78;5096339;28;779;-39
2021/07/22 11:16:22;;;;;;;;;;;;;;;25.71;46.93;100684.88;5076272;28;862;-31
2021/07/22 11:18:47;;;;;;;;;;;;;;;22.90;53.06;100688.47;5086535;28;1229;-32
2021/07/22 11:21:15;;;;;;;;;;;;;;;22.34;54.27;100689.44;5096190;28;823;-32
2021/07/22 11:23:41;;;;;;;;;;;;;;;22.11;54.46;100685.38;5094196;28;1484;-40
2021/07/22 11:26:06;;;;;;;;;;;;;;;24.71;49.28;100699.28;5088351;28;1209;-41
2021/07/22 11:28:32;;;;;;;;;;;;;;;24.17;48.85;100701.41;5089387;28;1273;-40
2021/07/22 11:30:57;;;;;;;;;;;;;;;22.61;53.12;100703.81;5093780;28;1336;-39
2021/07/22 11:33:23;;;;;;;;;;;;;;;22.29;53.84;100689.09;5090335;28;1355;-39
2021/07/22 11:35:55;;;;;;;;;;;;;;;22.05;54.21;100690.50;5089756;28;1906;-40
2021/07/22 11:38:20;;;;;;;;;;;;;;;24.38;50.23;100692.03;5094031;28;1334;-41
2021/07/22 11:40:45;;;;;;;;;;;;;;;25.26;46.36;100686.16;5099725;28;803;-39
2021/07/22 11:43:11;;;;;;;;;;;;;;;23.76;50.33;100690.47;5099695;28;943;-34
2021/07/22 11:45:43;;;;;;;;;;;;;;;22.71;52.75;100684.97;5100028;28;776;-34
2021/07/22 11:48:22;;;;;;;;;;;;;;;22.43;53.64;100676.97;5085721;28;1605;-37
2021/07/22 11:50:57;;;;;;;;;;;;;;;22.19;54.19;100670.41;5098224;28;1395;-32
2021/07/22 11:53:22;;;;;;;;;;;;;;;24.11;51.32;100680.53;5090897;28;1436;-31
2021/07/22 11:55:47;;;;;;;;;;;;;;;26.14;45.43;100677.22;5097033;28;1980;-35
2021/07/22 11:58:14;;;;;;;;;;;;;;;25.97;45.87;100681.03;5099744;28;982;-32
2021/07/22 12:00:39;;;;;;;;;;;;;;;23.19;51.93;100668.56;5100136;28;839;-42
2021/07/22 12:03:04;;;;;;;;;;;;;;;22.70;52.62;100668.03;5099132;28;1529;-38
2021/07/22 12:05:30;;;;;;;;;;;;;;;22.36;53.30;100661.50;5098944;28;1331;-42
2021/07/22 12:08:22;;;;;;;;;;;;;;;22.50;52.99;100659.28;5097179;28;1392;-43
2021/07/22 12:10:47;;;;;;;;;;;;;;;22.96;51.91;100661.84;5095191;28;1856;-39
2021/07/22 12:13:13;;;;;;;;;;;;;;;24.23;50.28;100653.38;5099714;28;930;-40
2021/07/22 12:15:38;;;;;;;;;;;;;;;26.11;44.95;100658.69;5099639;28;1964;-40
2021/07/22 12:18:04;;;;;;;;;;;;;;;26.88;43.24;100664.19;5094650;28;816;-39
2021/07/22 12:20:29;;;;;;;;;;;;;;;24.18;48.25;100660.09;5087506;28;1502;-38
2021/07/22 12:22:54;;;;;;;;;;;;;;;22.92;51.13;100660.47;5097949;28;1406;-35
2021/07/22 12:25:20;;;;;;;;;;;;;;;22.53;51.80;100661.66;5098958;28;1153;-38
2021/07/22 12:27:49;;;;;;;;;;;;;;;22.32;52.87;100668.16;5094329;28;1240;-34
2021/07/22 12:30:21;;;;;;;;;;;;;;;22.24;52.83;100666.25;5098154;28;1310;-32
2021/07/22 12:32:47;;;;;;;;;;;;;;;22.25;53.16;100654.53;5093884;28;1400;-36
2021/07/22 12:35:26;;;;;;;;;;;;;;;24.75;48.28;100654.91;5099273;28;1905;-33
2021/07/22 12:37:53;;;;;;;;;;;;;;;26.21;47.02;100653.06;5099577;28;878;-39
2021/07/22 12:40:18;;;;;;;;;;;;;;;27.07;42.06;100643.13;5098034;28;1509;-36
2021/07/22 12:42:57;;;;;;;;;;;;;;;26.42;45.19;100643.53;5098679;28;1200;-34
2021/07/22 12:45:22;;;;;;;;;;;;;;;23.42;50.74;100643.88;5096226;28;922;-31
2021/07/22 12:47:47;;;;;;;;;;;;;;;22.81;52.03;100645.50;5096586;28;1499;-38
2021/07/22 12:50:29;;;;;;;;;;;;;;;22.90;51.92;100641.03;5098290;28;1419;-39